Time;durP1;ratioP1;P1;durP2;ratioP2;P2;SDS_P1;SDS_P2;PMS_P1;PMS_P2;Temp;Humidity;BMP_temperature;BMP_pressure;BME280_temperature;BME280_humidity;BME280_pressure;Samples;Min_cycle;Max_cycle;Signal;HPM_P1;HPM_P2
2021/05/09 00:00:26;;;;;;;15.68;10.25;;;16.20;99.90;;;16.49;73.87;100414.13;4844258;29;20054;-79
2021/05/09 00:02:54;;;;;;;16.55;10.13;;;16.30;99.90;;;16.37;73.69;100387.88;4844290;29;20074;-80
2021/05/09 00:05:21;;;;;;;15.13;9.98;;;16.20;99.90;;;16.38;73.89;100400.28;4844286;29;20618;-79
2021/05/09 00:07:49;;;;;;;16.60;10.10;;;16.20;99.90;;;16.23;74.33;100400.81;4844326;29;20485;-80
2021/05/09 00:10:19;;;;;;;15.25;10.38;;;16.10;99.90;;;16.17;74.76;100401.03;4827632;29;20053;-79
2021/05/09 00:12:47;;;;;;;14.57;10.07;;;16.00;99.90;;;16.06;74.87;100392.53;4844142;29;20054;-78
2021/05/09 00:15:18;;;;;;;14.35;11.15;;;15.90;99.90;;;16.14;74.98;100391.31;4843908;29;20496;-80
2021/05/09 00:17:47;;;;;;;16.05;10.35;;;15.90;99.90;;;16.17;74.69;100388.56;4827700;29;20061;-80
2021/05/09 00:20:15;;;;;;;16.35;9.38;;;15.90;99.90;;;15.99;74.77;100375.84;4843976;29;20131;-79
2021/05/09 00:22:42;;;;;;;14.40;10.43;;;15.90;99.90;;;16.11;75.05;100378.09;4827375;29;20074;-79
2021/05/09 00:25:12;;;;;;;13.35;10.13;;;15.90;99.90;;;16.17;75.01;100380.56;4843790;29;20114;-79
2021/05/09 00:27:41;;;;;;;14.70;10.18;;;15.90;99.90;;;16.16;74.96;100361.94;4843666;29;20455;-79
2021/05/09 00:30:10;;;;;;;16.45;9.63;;;15.90;99.90;;;16.25;75.06;100366.94;4843789;29;20058;-79
2021/05/09 00:32:38;;;;;;;15.40;10.15;;;16.00;99.90;;;16.31;74.82;100369.41;4843811;29;20514;-78
2021/05/09 00:35:08;;;;;;;21.40;9.75;;;16.00;99.90;;;16.06;75.23;100363.19;4827133;29;20065;-79
2021/05/09 00:37:35;;;;;;;16.00;10.43;;;15.90;99.90;;;15.97;75.71;100366.16;4843617;29;20114;-79
2021/05/09 00:40:04;;;;;;;18.67;11.85;;;15.80;99.90;;;15.85;75.95;100362.09;4843600;29;20054;-78
2021/05/09 00:42:31;;;;;;;18.40;11.95;;;15.70;99.90;;;15.11;76.10;100241.13;4843475;29;20042;-79
2021/05/09 00:44:59;;;;;;;19.65;12.07;;;15.60;99.90;;;15.58;76.29;100341.69;4843598;29;20054;-78
2021/05/09 00:47:27;;;;;;;20.02;13.02;;;15.50;99.90;;;15.59;76.65;100353.25;4843628;29;20054;-79
2021/05/09 00:49:55;;;;;;;16.95;12.43;;;15.40;99.90;;;15.48;76.90;100348.28;4827038;29;20381;-79
2021/05/09 00:52:24;;;;;;;18.67;12.65;;;15.40;99.90;;;15.39;77.42;100338.75;4827007;29;20061;-79
2021/05/09 00:54:56;;;;;;;15.88;11.68;;;15.30;99.90;;;15.37;77.40;100335.25;4827060;29;20050;-80
2021/05/09 00:57:24;;;;;;;16.02;11.60;;;15.20;99.90;;;15.29;77.62;100344.44;4843433;29;20427;-79
2021/05/09 00:59:56;;;;;;;15.68;11.65;;;15.20;99.90;;;15.25;77.54;100338.31;4843375;29;20073;-80
2021/05/09 01:02:24;;;;;;;14.93;10.68;;;15.10;99.90;;;15.14;77.94;100336.91;4826892;29;20054;-79
2021/05/09 01:04:54;;;;;;;16.15;10.93;;;15.00;99.90;;;15.05;78.52;100323.88;4826536;29;20407;-80
2021/05/09 01:07:22;;;;;;;15.90;11.75;;;14.90;99.90;;;15.08;78.29;100332.66;4826445;29;20076;-80
2021/05/09 01:09:50;;;;;;;17.15;11.60;;;15.00;99.90;;;14.92;78.32;100317.22;4826902;29;20428;-80
2021/05/09 01:12:18;;;;;;;16.02;12.07;;;14.80;99.90;;;14.96;78.60;100319.69;4826948;29;20128;-80
2021/05/09 01:14:46;;;;;;;16.63;11.75;;;14.80;99.90;;;14.93;78.83;100317.16;4826620;29;20049;-79
2021/05/09 01:17:15;;;;;;;17.67;10.98;;;14.80;99.90;;;14.93;79.07;100314.50;4843048;29;20054;-80
2021/05/09 01:19:43;;;;;;;16.77;11.02;;;14.80;99.90;;;14.95;79.30;100312.66;4826343;29;20054;-80
2021/05/09 01:22:12;;;;;;;16.33;10.98;;;14.80;99.90;;;14.88;78.80;100300.47;4826687;29;20522;-79
2021/05/09 01:24:40;;;;;;;20.15;12.15;;;14.80;99.90;;;14.97;78.77;100302.81;4842814;29;20060;-79
2021/05/09 01:27:08;;;;;;;14.13;11.43;;;14.80;99.90;;;15.01;78.61;100307.13;4826415;29;20057;-79
2021/05/09 01:29:36;;;;;;;16.42;11.95;;;14.90;99.90;;;15.05;78.56;100303.47;4826480;29;20049;-78
2021/05/09 01:32:07;;;;;;;18.58;11.20;;;14.90;99.90;;;15.10;78.15;100293.50;4826345;29;20169;-79
2021/05/09 01:34:36;;;;;;;13.85;11.57;;;15.00;99.90;;;15.19;77.97;100295.88;4842383;29;20052;-80
2021/05/09 01:37:05;;;;;;;13.20;11.33;;;15.00;99.90;;;15.08;78.06;100292.69;4842630;29;20519;-80
2021/05/09 01:39:34;;;;;;;14.25;11.30;;;15.00;99.90;;;15.15;77.76;100291.59;4842896;29;20366;-80
2021/05/09 01:42:02;;;;;;;15.23;11.38;;;15.00;99.90;;;15.09;77.70;100274.94;4826213;29;20090;-79
2021/05/09 01:44:32;;;;;;;;;;;15.00;99.90;;;15.24;77.61;100293.06;4826590;29;20062;-78
2021/05/09 01:47:00;;;;;;;14.00;10.15;;;15.10;99.90;;;15.19;77.57;100279.88;4842349;29;19925;-80
2021/05/09 01:49:28;;;;;;;13.70;10.48;;;15.00;99.90;;;15.10;78.04;100280.19;4842788;29;20054;-79
2021/05/09 01:51:56;;;;;;;15.63;11.38;;;15.00;99.90;;;15.15;78.30;100286.25;4842463;29;20076;-80
2021/05/09 01:54:24;;;;;;;16.08;10.23;;;15.00;99.90;;;15.13;78.03;100285.44;4842336;29;20080;-79
2021/05/09 01:56:53;;;;;;;14.68;10.57;;;15.00;99.90;;;14.99;78.42;100270.81;4826116;29;20123;-79
2021/05/09 01:59:24;;;;;;;15.43;11.57;;;14.90;99.90;;;14.94;78.65;100270.94;4826250;29;20096;-77
2021/05/09 02:01:53;;;;;;;13.57;10.05;;;14.80;99.90;;;14.94;79.20;100270.94;4842468;29;20140;-79
2021/05/09 02:04:33;;;;;;;16.50;10.23;;;14.80;99.90;;;14.98;78.74;100267.25;4842260;29;20045;-80
2021/05/09 02:07:03;;;;;;;15.07;10.38;;;14.80;99.90;;;14.94;78.78;100292.25;4825919;29;20050;-80
2021/05/09 02:09:31;;;;;;;15.13;10.38;;;14.80;99.90;;;15.04;78.53;100267.06;4825860;29;20141;-79
2021/05/09 02:12:03;;;;;;;15.40;10.32;;;14.80;99.90;;;14.99;78.72;100262.81;4826054;29;20062;-79
2021/05/09 02:14:40;;;;;;;17.05;10.60;;;14.80;99.90;;;14.87;79.01;100257.88;4825896;29;20064;-80
2021/05/09 02:17:10;;;;;;;18.90;11.17;;;14.70;99.90;;;14.90;78.93;100258.69;4825712;29;20409;-78
2021/05/09 02:19:42;;;;;;;15.48;10.10;;;14.70;99.90;;;14.90;78.93;100260.47;4825810;29;20295;-80
2021/05/09 02:22:14;;;;;;;14.57;10.35;;;14.80;99.90;;;14.85;79.02;100241.94;4825892;29;20048;-79
2021/05/09 02:24:42;;;;;;;13.13;10.15;;;14.70;99.90;;;14.90;78.77;100264.00;4841966;29;20548;-79
2021/05/09 02:27:11;;;;;;;14.10;9.60;;;14.70;99.90;;;14.89;78.74;100248.03;4825692;29;20053;-80
2021/05/09 02:29:39;;;;;;;16.98;9.93;;;14.80;99.90;;;14.76;78.77;100228.06;4825611;29;20050;-79
2021/05/09 02:32:07;;;;;;;15.00;10.57;;;14.70;99.90;;;14.76;79.03;100241.38;4842027;29;20132;-76
2021/05/09 02:34:38;;;;;;;15.95;10.35;;;14.70;99.90;;;14.72;79.34;100251.25;4825808;29;20057;-80
2021/05/09 02:37:08;;;;;;;13.02;10.18;;;14.60;99.90;;;14.78;79.17;100243.09;4825563;29;20164;-79
2021/05/09 02:39:35;;;;;;;17.10;10.50;;;14.60;99.90;;;14.81;79.49;100240.31;4825440;29;20057;-79
2021/05/09 02:42:03;;;;;;;13.25;9.90;;;14.60;99.90;;;14.81;79.49;100240.31;4841955;29;20149;-80
2021/05/09 02:44:32;;;;;;;16.25;10.63;;;14.70;99.90;;;14.88;79.32;100241.88;4841940;29;20042;-80
2021/05/09 02:46:59;;;;;;;15.27;10.25;;;14.70;99.90;;;14.80;79.13;100237.69;4825521;29;20130;-80
2021/05/09 02:49:29;;;;;;;15.20;9.88;;;14.70;99.90;;;14.76;79.50;100241.38;4825603;29;20408;-80
2021/05/09 02:52:00;;;;;;;15.60;10.40;;;14.60;99.90;;;14.79;79.20;100236.81;4825553;29;20062;-78
2021/05/09 02:54:28;;;;;;;15.90;10.68;;;14.70;99.90;;;14.79;79.39;100231.50;4841839;29;20077;-78
2021/05/09 02:56:55;;;;;;;13.85;10.73;;;14.60;99.90;;;14.74;79.56;100227.25;4841843;29;20057;-79
2021/05/09 02:59:23;;;;;;;17.00;10.40;;;14.60;99.90;;;14.83;79.42;100221.59;4841908;29;20062;-79
2021/05/09 03:01:56;;;;;;;18.45;10.77;;;14.70;99.90;;;14.80;79.35;100229.72;4826021;29;20042;-79
2021/05/09 03:04:24;;;;;;;16.50;10.00;;;14.70;99.90;;;14.66;79.70;100219.50;4842552;29;20086;-78
2021/05/09 03:06:51;;;;;;;13.88;10.02;;;14.60;99.90;;;14.70;79.88;100218.47;4826178;29;20046;-79
2021/05/09 03:09:19;;;;;;;15.23;10.85;;;14.60;99.90;;;14.70;80.08;100221.16;4826223;29;20053;-78
2021/05/09 03:11:47;;;;;;;14.13;10.05;;;14.60;99.90;;;14.65;80.19;100220.44;4825561;29;20420;-80
2021/05/09 03:14:15;;;;;;;15.90;10.52;;;14.60;99.90;;;14.65;80.08;100220.44;4842150;29;20053;-78
2021/05/09 03:16:42;;;;;;;15.07;10.45;;;14.50;99.90;;;14.74;80.04;100222.78;4841943;29;20053;-79
2021/05/09 03:19:11;;;;;;;15.27;10.77;;;14.50;99.90;;;14.67;80.30;100212.41;4842089;29;20062;-77
2021/05/09 03:21:40;;;;;;;14.70;9.40;;;14.50;99.90;;;14.74;80.16;100208.59;4841728;29;20061;-79
2021/05/09 03:24:09;;;;;;;13.10;9.70;;;14.60;99.90;;;14.70;80.12;100209.63;4841887;29;20057;-80
2021/05/09 03:26:37;;;;;;;14.20;9.68;;;14.60;99.90;;;14.67;80.17;100199.97;4841938;29;20098;-80
2021/05/09 03:29:05;;;;;;;14.75;10.40;;;14.60;99.90;;;14.66;80.07;100192.00;4844848;29;20050;-79
2021/05/09 03:31:33;;;;;;;16.30;10.57;;;14.50;99.90;;;14.67;80.29;100189.31;4828614;29;20053;-79
2021/05/09 03:34:01;;;;;;;15.07;10.13;;;14.50;99.90;;;14.70;79.97;100209.63;4845266;29;20058;-79
2021/05/09 03:36:30;;;;;;;12.07;9.45;;;14.60;99.90;;;14.58;80.16;100199.34;4844738;29;20093;-80
2021/05/09 03:38:57;;;;;;;14.75;10.45;;;14.50;99.90;;;14.62;79.98;100203.66;4828079;29;20068;-79
2021/05/09 03:41:25;;;;;;;15.23;10.13;;;14.50;99.90;;;14.62;80.00;100207.19;4844593;29;20060;-79
2021/05/09 03:43:53;;;;;;;16.42;9.35;;;14.50;99.90;;;14.60;80.09;100203.72;4844692;29;20837;-79
2021/05/09 03:46:20;;;;;;;12.18;9.43;;;14.50;99.90;;;14.57;80.14;100203.81;4844965;29;20126;-80
2021/05/09 03:48:48;;;;;;;15.75;9.35;;;14.50;99.90;;;14.55;80.09;100195.03;4844453;29;20107;-79
2021/05/09 03:51:15;;;;;;;12.20;9.05;;;14.50;99.90;;;14.40;80.18;100166.22;4844495;29;20491;-79
2021/05/09 03:53:43;;;;;;;15.52;10.35;;;14.50;99.90;;;14.53;80.01;100188.00;4844436;29;20076;-79
2021/05/09 03:56:11;;;;;;;17.00;10.40;;;14.40;99.90;;;14.62;79.83;100193.00;4827957;29;20084;-80
2021/05/09 03:58:38;;;;;;;12.93;10.18;;;14.50;99.90;;;14.66;79.67;100198.19;4844502;29;20057;-79
2021/05/09 04:01:05;;;;;;;17.15;10.35;;;14.50;99.90;;;14.62;79.60;100198.34;4844972;29;20049;-79
2021/05/09 04:03:33;;;;;;;13.32;9.95;;;14.50;99.90;;;14.60;79.79;100203.72;4844208;29;20065;-77
2021/05/09 04:06:00;;;;;;;14.20;10.25;;;14.50;99.90;;;14.58;79.92;100204.69;4844251;29;20373;-79
2021/05/09 04:08:29;;;;;;;18.08;9.68;;;14.50;99.90;;;14.60;79.76;100193.06;4844172;29;20057;-80
2021/05/09 04:10:59;;;;;;;14.88;9.45;;;14.60;99.90;;;14.46;79.45;100163.34;4844060;29;20053;-80
2021/05/09 04:13:26;;;;;;;13.30;9.77;;;14.50;99.90;;;14.71;79.45;100204.25;4827492;29;20145;-80
2021/05/09 04:15:53;;;;;;;10.85;9.45;;;14.60;99.90;;;14.73;79.45;100207.72;4844181;29;20076;-80
2021/05/09 04:18:21;;;;;;;15.35;10.40;;;14.60;99.90;;;14.76;79.47;100198.78;4843983;29;20443;-80
2021/05/09 04:20:48;;;;;;;9.75;8.75;;;14.60;99.90;;;14.80;79.11;100209.28;4843990;29;20049;-79
2021/05/09 04:23:18;;;;;;;12.48;9.32;;;14.70;99.90;;;14.70;79.14;100205.19;4843995;29;20041;-80
2021/05/09 04:25:49;;;;;;;11.25;9.07;;;14.60;99.90;;;14.65;79.21;100199.13;4844080;29;20053;-80
2021/05/09 04:28:19;;;;;;;15.27;9.25;;;14.60;99.90;;;14.06;79.54;100104.31;4844055;29;20056;-80
2021/05/09 04:30:46;;;;;;;12.68;9.55;;;14.50;99.90;;;14.72;79.25;100198.00;4843957;29;20061;-79
2021/05/09 04:33:15;;;;;;;12.95;9.25;;;14.60;99.90;;;14.79;79.10;100199.53;4843944;29;20073;-80
2021/05/09 04:35:45;;;;;;;12.65;9.35;;;14.60;99.90;;;14.73;79.00;100202.41;4843762;29;20065;-80
2021/05/09 04:38:13;;;;;;;11.27;8.77;;;14.60;99.90;;;14.72;78.96;100198.00;4843020;29;20058;-80
2021/05/09 04:40:40;;;;;;;15.63;8.82;;;14.60;99.90;;;14.60;79.34;100198.41;4843664;29;20050;-81
2021/05/09 04:43:10;;;;;;;11.73;9.23;;;14.50;99.90;;;14.66;79.39;100197.31;4843432;29;20504;-79
2021/05/09 04:45:39;;;;;;;10.50;8.45;;;14.50;99.90;;;14.58;79.58;100200.22;4843632;29;20041;-80
2021/05/09 04:48:07;;;;;;;11.18;8.48;;;14.50;99.90;;;14.61;79.65;100200.16;4843432;29;20046;-80
2021/05/09 04:50:37;;;;;;;11.18;9.32;;;14.50;99.90;;;14.61;79.49;100199.28;4843366;29;20045;-80
2021/05/09 04:53:21;;;;;;;12.90;9.60;;;14.50;99.90;;;14.41;79.59;100181.25;4843788;29;20430;-80
2021/05/09 04:55:49;;;;;;;11.63;8.95;;;14.50;99.90;;;14.65;79.76;100204.47;4843306;29;20511;-80
2021/05/09 04:58:16;;;;;;;15.38;9.57;;;14.50;99.90;;;14.66;79.62;100199.97;4843350;29;20132;-79
2021/05/09 05:00:45;;;;;;;10.77;8.63;;;14.50;99.90;;;14.71;79.33;100195.41;4843287;29;20057;-80
2021/05/09 05:03:12;;;;;;;12.68;9.18;;;14.60;99.90;;;14.80;79.70;100198.66;4843129;29;20058;-80
2021/05/09 05:05:40;;;;;;;12.77;9.05;;;14.60;99.90;;;14.74;79.23;100195.28;4826625;29;20149;-81
2021/05/09 05:08:08;;;;;;;9.18;8.18;;;14.60;99.90;;;14.89;79.33;100205.44;4843027;29;20132;-80
2021/05/09 05:10:35;;;;;;;12.07;9.20;;;14.70;99.90;;;14.69;79.22;100173.28;4826725;29;20136;-81
2021/05/09 05:13:02;;;;;;;11.70;8.73;;;14.70;99.90;;;14.81;79.22;100192.38;4826736;29;20507;-79
2021/05/09 05:15:30;;;;;;;11.85;8.20;;;14.70;99.90;;;14.96;79.16;100191.88;4842873;29;20388;-80
2021/05/09 05:17:58;;;;;;;11.73;9.02;;;14.80;99.90;;;14.92;79.16;100190.25;4843132;29;20046;-80
2021/05/09 05:20:25;;;;;;;11.15;9.43;;;14.70;99.90;;;15.01;78.89;100186.41;4843030;29;20049;-80
2021/05/09 05:22:53;;;;;;;15.30;9.35;;;14.80;99.90;;;15.05;78.54;100180.94;4843019;29;20054;-77
2021/05/09 05:25:20;;;;;;;12.18;9.18;;;14.80;99.90;;;14.53;78.20;100068.25;4842871;29;20115;-79
2021/05/09 05:27:47;;;;;;;13.55;8.45;;;14.90;99.90;;;15.05;78.39;100170.28;4842616;29;20524;-80
2021/05/09 05:30:16;;;;;;;11.43;8.65;;;14.90;99.90;;;15.14;78.17;100183.28;4842570;29;20050;-78
2021/05/09 05:32:47;;;;;;;10.82;8.85;;;14.90;99.90;;;15.10;78.20;100172.75;4842848;29;20189;-78
2021/05/09 05:35:15;;;;;;;11.93;8.95;;;14.90;99.90;;;15.16;77.87;100165.44;4842718;29;20085;-79
2021/05/09 05:37:47;;;;;;;13.98;9.23;;;14.90;99.90;;;15.03;78.42;100166.78;4842644;29;20393;-79
2021/05/09 05:40:15;;;;;;;12.93;8.85;;;14.80;99.90;;;14.99;78.54;100158.94;4842566;29;20064;-79
2021/05/09 05:42:43;;;;;;;14.52;8.63;;;14.70;99.90;;;14.89;78.95;100161.06;4842396;29;20053;-79
2021/05/09 05:45:11;;;;;;;12.43;9.32;;;14.70;99.90;;;14.77;79.37;100155.28;4842663;29;20097;-79
2021/05/09 05:47:39;;;;;;;11.70;8.63;;;14.50;99.90;;;14.74;79.84;100160.69;4826053;29;20099;-79
2021/05/09 05:50:08;;;;;;;11.40;8.52;;;14.50;99.90;;;14.61;80.23;100125.63;4841834;29;20129;-79
2021/05/09 05:52:37;;;;;;;11.63;9.32;;;14.50;99.90;;;14.79;80.04;100159.59;4825940;29;20123;-79
2021/05/09 05:55:06;;;;;;;10.32;8.73;;;14.50;99.90;;;14.77;79.86;100158.78;4842219;29;20050;-79
2021/05/09 05:57:33;;;;;;;12.50;9.77;;;14.50;99.90;;;14.77;79.84;100158.78;4842405;29;20058;-80
2021/05/09 06:00:00;;;;;;;11.15;9.40;;;14.50;99.90;;;14.86;79.53;100158.50;4842493;29;20050;-80
2021/05/09 06:02:28;;;;;;;13.30;9.57;;;14.60;99.90;;;15.16;78.80;100161.91;4842532;29;20118;-80
2021/05/09 06:04:56;;;;;;;10.70;9.20;;;14.80;99.90;;;14.99;78.31;100154.50;4825722;29;20605;-78
2021/05/09 06:07:25;;;;;;;13.50;9.32;;;14.80;99.90;;;14.97;79.21;100148.34;4842099;29;20046;-80
2021/05/09 06:09:53;;;;;;;14.60;9.50;;;14.70;99.90;;;14.94;79.19;100148.44;4842290;29;20134;-79
2021/05/09 06:12:21;;;;;;;9.73;8.68;;;14.70;99.90;;;15.08;78.92;100148.84;4842302;29;20050;-79
2021/05/09 06:14:49;;;;;;;11.90;9.05;;;14.80;99.90;;;15.14;78.47;100145.09;4842097;29;20076;-79
2021/05/09 06:17:16;;;;;;;12.20;8.85;;;14.80;99.90;;;15.22;78.20;100135.94;4842076;29;20056;-80
2021/05/09 06:19:44;;;;;;;12.30;9.13;;;15.00;99.90;;;15.27;78.14;100144.63;4842310;29;20065;-79
2021/05/09 06:22:11;;;;;;;10.48;8.90;;;15.00;99.90;;;15.41;77.70;100141.47;4841872;29;20118;-79
2021/05/09 06:24:38;;;;;;;12.45;9.43;;;15.10;99.90;;;15.62;76.55;100148.72;4842092;29;20135;-79
2021/05/09 06:27:07;;;;;;;9.75;8.75;;;15.40;99.90;;;15.84;76.73;100162.13;4842018;29;20056;-79
2021/05/09 06:29:34;;;;;;;11.27;8.48;;;15.50;99.90;;;15.78;75.84;100146.38;4842176;29;20046;-79
2021/05/09 06:32:02;;;;;;;13.05;9.55;;;15.50;99.90;;;15.87;76.00;100146.03;4841910;29;20073;-78
2021/05/09 06:34:29;;;;;;;10.10;8.88;;;15.60;99.90;;;15.73;76.22;100138.56;4842062;29;20052;-79
2021/05/09 06:36:57;;;;;;;12.93;9.38;;;15.50;99.90;;;15.65;76.55;100124.63;4841965;29;20522;-79
2021/05/09 06:39:27;;;;;;;11.05;9.15;;;15.50;99.90;;;15.78;76.42;100125.91;4825495;29;20466;-78
2021/05/09 06:41:58;;;;;;;12.27;9.15;;;15.50;99.90;;;15.84;76.16;100138.13;4842041;29;20046;-79
2021/05/09 06:44:31;;;;;;;12.38;8.55;;;15.50;99.90;;;16.03;75.81;100147.19;4841759;29;20061;-79
2021/05/09 06:46:59;;;;;;;12.30;9.05;;;15.70;99.90;;;16.13;75.11;100143.25;4841690;29;20049;-78
2021/05/09 06:49:27;;;;;;;10.27;8.32;;;15.80;99.90;;;16.12;75.49;100139.69;4841705;29;20046;-78
2021/05/09 06:51:56;;;;;;;11.35;9.55;;;15.90;99.90;;;16.24;75.23;100109.00;4842080;29;20081;-76
2021/05/09 06:54:25;;;;;;;10.50;9.43;;;16.00;99.90;;;16.20;75.24;100107.41;4842082;29;20054;-78
2021/05/09 06:56:53;;;;;;;9.80;8.45;;;16.00;99.90;;;16.20;74.87;100102.06;4842034;29;20094;-78
2021/05/09 06:59:21;;;;;;;13.63;8.57;;;15.90;99.90;;;16.25;74.05;100098.28;4842062;29;20053;-78
2021/05/09 07:01:49;;;;;;;10.27;8.27;;;15.90;99.90;;;16.44;73.80;100103.72;4842463;29;20469;-77
2021/05/09 07:04:16;;;;;;;9.85;8.50;;;16.10;99.90;;;16.72;73.26;100103.50;4828766;29;20065;-78
2021/05/09 07:06:44;;;;;;;10.65;8.82;;;16.40;99.90;;;16.85;72.89;100100.28;4845338;29;20098;-78
2021/05/09 07:09:11;;;;;;;13.70;8.98;;;16.50;99.90;;;16.69;72.75;100092.94;4828535;29;20141;-78
2021/05/09 07:11:39;;;;;;;10.40;8.32;;;16.50;99.90;;;16.85;73.31;100091.38;4845199;29;20046;-79
2021/05/09 07:14:07;;;;;;;10.68;8.45;;;16.60;99.90;;;16.99;71.56;100097.00;4845029;29;20054;-78
2021/05/09 07:16:35;;;;;;;11.38;8.65;;;16.70;99.90;;;16.93;72.23;100108.84;4828400;29;20091;-79
2021/05/09 07:19:07;;;;;;;12.25;8.65;;;16.70;99.90;;;17.12;71.72;100125.81;4844951;29;20058;-78
2021/05/09 07:21:38;;;;;;;10.75;8.50;;;16.80;99.90;;;17.42;71.25;100104.03;4844823;29;20110;-79
2021/05/09 07:24:07;;;;;;;10.85;8.48;;;17.10;99.90;;;17.40;70.68;100093.38;4844781;29;20054;-78
2021/05/09 07:26:35;;;;;;;9.90;8.38;;;17.10;99.90;;;17.44;71.16;100088.78;4844958;29;20050;-78
2021/05/09 07:29:04;;;;;;;11.98;9.00;;;17.10;99.90;;;17.65;70.17;100086.00;4844867;29;20145;-78
2021/05/09 07:31:32;;;;;;;8.90;7.80;;;17.30;99.90;;;17.94;69.60;100103.41;4828413;29;20170;-78
2021/05/09 07:34:01;;;;;;;10.82;7.70;;;17.60;99.90;;;18.06;68.69;100118.03;4844754;29;20049;-78
2021/05/09 07:36:29;;;;;;;11.30;7.90;;;17.80;99.90;;;18.26;67.98;100134.88;4827891;29;20062;-75
2021/05/09 07:38:57;;;;;;;11.35;8.05;;;18.00;99.90;;;18.30;67.32;100135.59;4828099;29;20403;-74
2021/05/09 07:41:24;;;;;;;11.23;7.25;;;18.10;99.90;;;18.43;67.35;100124.25;4844337;29;20050;-74
2021/05/09 07:43:51;;;;;;;9.05;7.18;;;18.20;99.90;;;17.77;68.93;100074.75;4844513;29;20045;-75
2021/05/09 07:46:19;;;;;;;10.00;7.72;;;17.80;99.90;;;17.41;70.54;100086.22;4844499;29;20153;-74
2021/05/09 07:48:47;;;;;;;10.75;8.05;;;17.30;99.90;;;17.34;71.18;100077.63;4844301;29;20049;-77
2021/05/09 07:51:14;;;;;;;9.07;8.18;;;17.10;99.90;;;17.46;71.81;100065.53;4844079;29;20046;-74
2021/05/09 07:53:43;;;;;;;10.05;8.30;;;17.10;99.90;;;17.49;71.95;100058.25;4827602;29;20072;-74
2021/05/09 07:56:11;;;;;;;11.05;8.57;;;17.20;99.90;;;17.42;71.51;100058.56;4844069;29;20530;-75
2021/05/09 07:58:38;;;;;;;10.70;8.38;;;17.20;99.90;;;17.39;71.66;100058.69;4844604;29;20050;-74
2021/05/09 08:01:06;;;;;;;13.98;9.65;;;17.20;99.90;;;17.60;72.19;100065.75;4827677;29;20062;-72
2021/05/09 08:03:35;;;;;;;10.77;9.15;;;17.20;99.90;;;17.79;71.59;100069.31;4844164;29;20526;-73
2021/05/09 08:06:04;;;;;;;12.65;8.90;;;17.50;99.90;;;17.96;71.35;100070.28;4844242;29;20114;-77
2021/05/09 08:08:32;;;;;;;11.00;9.35;;;17.60;99.90;;;18.44;70.78;100069.78;4827247;29;20095;-71
2021/05/09 08:11:00;;;;;;;10.02;8.27;;;18.10;99.90;;;18.56;70.42;100047.72;4844189;29;20060;-71
2021/05/09 08:13:28;;;;;;;10.45;9.35;;;18.40;99.90;;;18.69;68.77;100059.56;4826656;29;20134;-73
2021/05/09 08:15:55;;;;;;;10.30;8.25;;;18.50;99.90;;;18.80;68.00;100048.28;4843899;29;20046;-72
2021/05/09 08:18:23;;;;;;;12.05;8.48;;;18.60;99.90;;;18.83;69.83;100059.72;4843849;29;20106;-71
2021/05/09 08:20:50;;;;;;;13.35;8.38;;;18.60;99.90;;;19.07;69.26;100052.22;4843851;29;20053;-70
2021/05/09 08:23:19;;;;;;;10.00;8.50;;;18.80;99.90;;;19.31;69.54;100050.94;4827239;29;20054;-74
2021/05/09 08:25:46;;;;;;;10.18;8.20;;;19.00;99.90;;;19.44;67.93;100052.06;4827227;29;20046;-74
2021/05/09 08:28:15;;;;;;;8.93;8.02;;;19.20;99.90;;;19.49;69.22;100049.13;4827305;29;20077;-74
2021/05/09 08:30:43;;;;;;;9.18;8.27;;;19.30;99.90;;;19.49;70.46;100049.97;4843742;29;20496;-73
2021/05/09 08:33:10;;;;;;;10.85;8.18;;;19.20;99.90;;;19.80;68.12;100050.03;4843703;29;20046;-75
2021/05/09 08:35:38;;;;;;;9.52;8.27;;;19.50;99.90;;;19.72;68.44;100038.84;4843182;29;20072;-73
2021/05/09 08:38:06;;;;;;;14.00;8.57;;;19.50;99.90;;;19.72;66.84;100040.69;4843708;29;20061;-75
2021/05/09 08:40:38;;;;;;;11.07;8.38;;;19.50;99.90;;;19.01;68.29;99952.53;4843993;29;20061;-77
2021/05/09 08:43:06;;;;;;;11.73;8.73;;;19.30;99.90;;;19.89;68.95;100046.00;4843506;29;20098;-83
2021/05/09 08:45:34;;;;;;;10.57;8.43;;;19.60;99.90;;;20.13;67.82;100039.22;4843495;29;20062;-77
2021/05/09 08:48:02;;;;;;;9.48;8.57;;;19.90;99.90;;;20.43;67.24;100055.47;4826955;29;20053;-71
2021/05/09 08:50:31;;;;;;;13.00;8.93;;;20.20;99.90;;;20.62;66.94;100056.13;4843277;29;20057;-72
2021/05/09 08:52:59;;;;;;;9.32;8.13;;;20.40;99.90;;;20.65;67.58;100050.59;4826906;29;20557;-71
2021/05/09 08:55:27;;;;;;;10.38;8.80;;;20.50;99.90;;;20.90;66.56;100021.28;4826837;29;20058;-71
2021/05/09 08:57:55;;;;;;;11.50;9.05;;;20.80;99.90;;;20.93;65.05;100034.53;4843314;29;20548;-69
2021/05/09 09:00:25;;;;;;;9.88;8.32;;;20.80;99.90;;;20.94;64.10;100035.41;4843096;29;20080;-71
2021/05/09 09:03:01;;;;;;;10.55;8.23;;;20.80;99.90;;;20.91;65.60;100047.19;4843347;29;20148;-67
2021/05/09 09:05:38;;;;;;;9.15;7.88;;;20.80;99.90;;;20.50;64.95;100021.91;4826440;29;20054;-72
2021/05/09 09:08:07;;;;;;;11.60;7.93;;;20.60;99.90;;;20.08;65.70;99952.72;4843205;29;20054;-70
2021/05/09 09:10:38;;;;;;;8.20;7.40;;;20.60;99.90;;;20.57;64.73;100053.72;4842939;29;20046;-68
2021/05/09 09:13:24;;;;;;;10.63;7.88;;;20.50;99.90;;;20.55;66.57;100058.31;4826562;29;20146;-71
2021/05/09 09:15:57;;;;;;;8.95;7.97;;;20.40;99.90;;;20.65;65.52;100048.75;4842824;29;20094;-70
2021/05/09 09:18:36;;;;;;;9.68;8.57;;;20.50;99.90;;;20.66;65.20;100041.56;4842943;29;20060;-69
2021/05/09 09:21:25;;;;;;;9.88;8.30;;;20.50;99.90;;;20.64;67.29;100048.84;4842857;29;20063;-69
2021/05/09 09:23:55;;;;;;;9.73;8.73;;;20.40;99.90;;;20.84;67.97;100034.22;4842665;29;20129;-67
2021/05/09 09:26:38;;;;;;;13.02;8.60;;;20.60;99.90;;;21.00;66.77;100027.81;4842621;29;20061;-68
2021/05/09 09:29:25;;;;;;;11.25;8.85;;;20.80;99.90;;;21.26;64.87;100027.13;4842407;29;20049;-67
2021/05/09 09:31:55;;;;;;;9.43;8.43;;;21.00;99.90;;;21.56;65.41;100025.22;4842493;29;20224;-68
2021/05/09 09:34:37;;;;;;;9.38;7.68;;;21.40;99.90;;;21.59;62.60;100008.03;4842709;29;20137;-66
2021/05/09 09:37:05;;;;;;;10.40;8.68;;;21.60;99.90;;;21.95;63.15;100035.31;4826052;29;20935;-65
2021/05/09 09:39:45;;;;;;;10.80;7.75;;;21.80;99.90;;;22.06;62.54;100018.47;4826073;29;20106;-68
2021/05/09 09:42:13;;;;;;;11.30;7.13;;;21.90;99.90;;;22.21;61.66;99983.31;4842392;29;20049;-68
2021/05/09 09:44:41;;;;;;;10.23;7.00;;;22.10;99.90;;;22.58;59.82;99991.66;4842567;29;20042;-70
2021/05/09 09:47:08;;;;;;;8.98;6.43;;;22.40;99.90;;;22.74;60.57;99984.25;4842341;29;20116;-67
2021/05/09 09:49:38;;;;;;;9.00;7.18;;;22.60;99.90;;;22.97;62.10;99978.16;4825943;29;20393;-69
2021/05/09 09:52:08;;;;;;;8.38;7.05;;;22.80;99.90;;;22.95;59.02;99977.38;4842521;29;20736;-70
2021/05/09 09:54:43;;;;;;;10.20;7.32;;;22.80;99.90;;;22.91;58.08;99959.69;4825786;29;20053;-70
2021/05/09 09:57:26;;;;;;;10.13;7.82;;;22.80;99.90;;;22.56;58.66;99978.25;4842221;29;20061;-67
2021/05/09 10:00:08;;;;;;;8.07;7.38;;;22.50;99.90;;;22.73;60.55;99947.47;4842243;29;20046;-68
2021/05/09 10:02:38;;;;;;;8.82;7.80;;;22.50;99.90;;;22.59;60.28;99955.66;4842326;29;20046;-67
2021/05/09 10:05:09;;;;;;;8.15;7.35;;;22.60;99.90;;;22.67;60.49;99966.75;4842071;29;20084;-69
2021/05/09 10:07:36;;;;;;;;;;;22.50;99.90;;;22.80;61.01;99963.09;4842457;29;20061;-71
2021/05/09 10:10:06;;;;;;;10.05;7.47;;;22.60;99.90;;;22.79;60.22;99979.41;4842101;29;19928;-70
2021/05/09 10:12:33;;;;;;;10.43;8.10;;;22.60;99.90;;;22.55;59.23;99960.34;4825814;29;20444;-68